sensor_id;sensor_type;location;lat;lon;timestamp;P1;durP1;ratioP1;P2;durP2;ratioP2
43626;SDS011;29217;52.586;13.442;2022-08-07T00:00:33;13.75;;;5.97;;
43626;SDS011;29217;52.586;13.442;2022-08-07T00:02:58;9.25;;;6.05;;
43626;SDS011;29217;52.586;13.442;2022-08-07T00:05:25;13.68;;;6.28;;
43626;SDS011;29217;52.586;13.442;2022-08-07T00:07:51;15.77;;;6.97;;
43626;SDS011;29217;52.586;13.442;2022-08-07T00:10:17;15.25;;;7.30;;
43626;SDS011;29217;52.586;13.442;2022-08-07T00:12:43;16.27;;;7.25;;
43626;SDS011;29217;52.586;13.442;2022-08-07T00:15:09;13.85;;;6.88;;
43626;SDS011;29217;52.586;13.442;2022-08-07T00:17:35;16.02;;;8.30;;
43626;SDS011;29217;52.586;13.442;2022-08-07T00:20:00;16.80;;;7.32;;
43626;SDS011;29217;52.586;13.442;2022-08-07T00:22:26;16.10;;;7.22;;
43626;SDS011;29217;52.586;13.442;2022-08-07T00:24:51;15.27;;;6.90;;
43626;SDS011;29217;52.586;13.442;2022-08-07T00:27:17;16.58;;;7.20;;
43626;SDS011;29217;52.586;13.442;2022-08-07T00:29:42;17.85;;;8.15;;
43626;SDS011;29217;52.586;13.442;2022-08-07T00:32:08;15.90;;;7.47;;
43626;SDS011;29217;52.586;13.442;2022-08-07T00:34:36;15.98;;;8.07;;
43626;SDS011;29217;52.586;13.442;2022-08-07T00:37:02;21.30;;;8.25;;
43626;SDS011;29217;52.586;13.442;2022-08-07T00:39:28;14.65;;;8.07;;
43626;SDS011;29217;52.586;13.442;2022-08-07T00:41:56;17.20;;;8.55;;
43626;SDS011;29217;52.586;13.442;2022-08-07T00:44:23;16.80;;;8.85;;
43626;SDS011;29217;52.586;13.442;2022-08-07T00:46:49;21.95;;;9.57;;
43626;SDS011;29217;52.586;13.442;2022-08-07T00:49:15;19.35;;;10.38;;
43626;SDS011;29217;52.586;13.442;2022-08-07T00:51:41;21.05;;;9.98;;
43626;SDS011;29217;52.586;13.442;2022-08-07T00:54:07;19.95;;;9.50;;
43626;SDS011;29217;52.586;13.442;2022-08-07T00:56:33;19.80;;;9.65;;
43626;SDS011;29217;52.586;13.442;2022-08-07T00:58:59;21.40;;;10.63;;
43626;SDS011;29217;52.586;13.442;2022-08-07T01:01:25;18.20;;;10.10;;
43626;SDS011;29217;52.586;13.442;2022-08-07T01:03:51;20.55;;;9.98;;
43626;SDS011;29217;52.586;13.442;2022-08-07T01:06:17;18.60;;;9.80;;
43626;SDS011;29217;52.586;13.442;2022-08-07T01:08:43;16.65;;;9.15;;
43626;SDS011;29217;52.586;13.442;2022-08-07T01:11:10;20.45;;;9.30;;
43626;SDS011;29217;52.586;13.442;2022-08-07T01:13:37;15.68;;;8.10;;
43626;SDS011;29217;52.586;13.442;2022-08-07T01:16:04;18.08;;;9.13;;
43626;SDS011;29217;52.586;13.442;2022-08-07T01:18:30;13.90;;;7.35;;
43626;SDS011;29217;52.586;13.442;2022-08-07T01:23:42;17.75;;;7.82;;
43626;SDS011;29217;52.586;13.442;2022-08-07T01:26:09;14.23;;;7.70;;
43626;SDS011;29217;52.586;13.442;2022-08-07T01:28:37;16.65;;;8.63;;
43626;SDS011;29217;52.586;13.442;2022-08-07T01:31:04;15.57;;;8.27;;
43626;SDS011;29217;52.586;13.442;2022-08-07T01:33:30;15.27;;;8.50;;
43626;SDS011;29217;52.586;13.442;2022-08-07T01:35:56;14.32;;;8.05;;
43626;SDS011;29217;52.586;13.442;2022-08-07T01:38:24;17.02;;;8.77;;
43626;SDS011;29217;52.586;13.442;2022-08-07T01:40:50;16.63;;;9.00;;
43626;SDS011;29217;52.586;13.442;2022-08-07T01:43:18;17.48;;;8.88;;
43626;SDS011;29217;52.586;13.442;2022-08-07T01:45:44;16.33;;;8.65;;
43626;SDS011;29217;52.586;13.442;2022-08-07T01:48:10;16.88;;;8.40;;
43626;SDS011;29217;52.586;13.442;2022-08-07T01:50:36;17.35;;;8.25;;
43626;SDS011;29217;52.586;13.442;2022-08-07T01:53:03;13.95;;;7.72;;
43626;SDS011;29217;52.586;13.442;2022-08-07T01:55:33;13.63;;;7.13;;
43626;SDS011;29217;52.586;13.442;2022-08-07T01:58:04;13.38;;;6.78;;
43626;SDS011;29217;52.586;13.442;2022-08-07T02:00:34;12.07;;;7.28;;
43626;SDS011;29217;52.586;13.442;2022-08-07T02:03:02;16.63;;;7.07;;
43626;SDS011;29217;52.586;13.442;2022-08-07T02:05:35;14.15;;;7.50;;
43626;SDS011;29217;52.586;13.442;2022-08-07T02:08:07;12.38;;;6.30;;
43626;SDS011;29217;52.586;13.442;2022-08-07T02:10:35;10.93;;;6.40;;
43626;SDS011;29217;52.586;13.442;2022-08-07T02:13:03;12.18;;;6.70;;
43626;SDS011;29217;52.586;13.442;2022-08-07T02:15:29;11.02;;;5.90;;
43626;SDS011;29217;52.586;13.442;2022-08-07T02:17:57;8.10;;;5.63;;
43626;SDS011;29217;52.586;13.442;2022-08-07T02:20:25;10.88;;;6.30;;
43626;SDS011;29217;52.586;13.442;2022-08-07T02:22:54;9.95;;;6.07;;
43626;SDS011;29217;52.586;13.442;2022-08-07T02:25:22;11.45;;;5.93;;
43626;SDS011;29217;52.586;13.442;2022-08-07T02:27:49;13.05;;;6.20;;
43626;SDS011;29217;52.586;13.442;2022-08-07T02:30:16;8.40;;;5.70;;
43626;SDS011;29217;52.586;13.442;2022-08-07T02:32:42;12.52;;;5.70;;
43626;SDS011;29217;52.586;13.442;2022-08-07T02:35:08;10.25;;;5.57;;
43626;SDS011;29217;52.586;13.442;2022-08-07T02:37:36;9.45;;;5.43;;
43626;SDS011;29217;52.586;13.442;2022-08-07T02:40:05;7.35;;;5.45;;
43626;SDS011;29217;52.586;13.442;2022-08-07T02:42:33;10.02;;;5.63;;
43626;SDS011;29217;52.586;13.442;2022-08-07T02:45:00;7.82;;;5.40;;
43626;SDS011;29217;52.586;13.442;2022-08-07T02:47:28;9.98;;;5.85;;
43626;SDS011;29217;52.586;13.442;2022-08-07T02:49:54;13.32;;;5.90;;
43626;SDS011;29217;52.586;13.442;2022-08-07T02:52:22;10.27;;;5.35;;
43626;SDS011;29217;52.586;13.442;2022-08-07T02:54:53;9.52;;;5.38;;
43626;SDS011;29217;52.586;13.442;2022-08-07T02:57:21;8.25;;;5.03;;
43626;SDS011;29217;52.586;13.442;2022-08-07T02:59:47;9.35;;;5.03;;
43626;SDS011;29217;52.586;13.442;2022-08-07T03:02:14;8.88;;;5.10;;
43626;SDS011;29217;52.586;13.442;2022-08-07T03:04:42;9.98;;;5.60;;
43626;SDS011;29217;52.586;13.442;2022-08-07T03:07:09;8.10;;;5.22;;
43626;SDS011;29217;52.586;13.442;2022-08-07T03:09:36;9.82;;;5.20;;
43626;SDS011;29217;52.586;13.442;2022-08-07T03:12:02;8.50;;;5.43;;
43626;SDS011;29217;52.586;13.442;2022-08-07T03:14:29;19.17;;;7.25;;
43626;SDS011;29217;52.586;13.442;2022-08-07T03:16:56;9.38;;;5.00;;
43626;SDS011;29217;52.586;13.442;2022-08-07T03:19:23;9.80;;;4.70;;
43626;SDS011;29217;52.586;13.442;2022-08-07T03:21:49;8.88;;;5.18;;
43626;SDS011;29217;52.586;13.442;2022-08-07T03:24:16;7.88;;;5.18;;
43626;SDS011;29217;52.586;13.442;2022-08-07T03:26:42;10.50;;;5.30;;
43626;SDS011;29217;52.586;13.442;2022-08-07T03:29:10;8.18;;;5.07;;
43626;SDS011;29217;52.586;13.442;2022-08-07T03:31:38;8.18;;;5.00;;
43626;SDS011;29217;52.586;13.442;2022-08-07T03:34:05;7.72;;;5.05;;
43626;SDS011;29217;52.586;13.442;2022-08-07T03:36:33;9.63;;;5.68;;
43626;SDS011;29217;52.586;13.442;2022-08-07T03:39:02;10.07;;;5.60;;
43626;SDS011;29217;52.586;13.442;2022-08-07T03:41:31;10.07;;;6.03;;
43626;SDS011;29217;52.586;13.442;2022-08-07T03:43:57;10.88;;;5.60;;
43626;SDS011;29217;52.586;13.442;2022-08-07T03:46:23;11.77;;;6.32;;
43626;SDS011;29217;52.586;13.442;2022-08-07T03:48:50;11.98;;;5.60;;
43626;SDS011;29217;52.586;13.442;2022-08-07T03:51:16;8.85;;;5.85;;
43626;SDS011;29217;52.586;13.442;2022-08-07T03:53:44;8.13;;;5.15;;
43626;SDS011;29217;52.586;13.442;2022-08-07T03:56:09;11.35;;;5.15;;
43626;SDS011;29217;52.586;13.442;2022-08-07T03:58:35;8.55;;;4.85;;
43626;SDS011;29217;52.586;13.442;2022-08-07T04:01:02;7.32;;;5.30;;
43626;SDS011;29217;52.586;13.442;2022-08-07T04:03:28;8.07;;;4.90;;
43626;SDS011;29217;52.586;13.442;2022-08-07T04:05:55;8.02;;;5.10;;
43626;SDS011;29217;52.586;13.442;2022-08-07T04:08:20;9.63;;;4.75;;
43626;SDS011;29217;52.586;13.442;2022-08-07T04:10:46;7.32;;;4.88;;
43626;SDS011;29217;52.586;13.442;2022-08-07T04:13:13;8.65;;;4.57;;
43626;SDS011;29217;52.586;13.442;2022-08-07T04:15:38;10.10;;;4.85;;
43626;SDS011;29217;52.586;13.442;2022-08-07T04:18:05;6.25;;;4.47;;
43626;SDS011;29217;52.586;13.442;2022-08-07T04:20:30;7.97;;;4.97;;
43626;SDS011;29217;52.586;13.442;2022-08-07T04:22:56;7.47;;;4.80;;
43626;SDS011;29217;52.586;13.442;2022-08-07T04:25:22;10.60;;;4.22;;
43626;SDS011;29217;52.586;13.442;2022-08-07T04:27:49;8.77;;;4.80;;
43626;SDS011;29217;52.586;13.442;2022-08-07T04:30:14;9.98;;;4.70;;
43626;SDS011;29217;52.586;13.442;2022-08-07T04:32:40;11.55;;;4.60;;
43626;SDS011;29217;52.586;13.442;2022-08-07T04:35:06;5.93;;;4.13;;
43626;SDS011;29217;52.586;13.442;2022-08-07T04:37:33;7.20;;;4.75;;
43626;SDS011;29217;52.586;13.442;2022-08-07T04:39:59;7.88;;;4.40;;
43626;SDS011;29217;52.586;13.442;2022-08-07T04:42:26;6.38;;;4.82;;
43626;SDS011;29217;52.586;13.442;2022-08-07T04:44:57;10.10;;;5.65;;
43626;SDS011;29217;52.586;13.442;2022-08-07T04:47:34;7.00;;;4.00;;
43626;SDS011;29217;52.586;13.442;2022-08-07T04:50:54;7.20;;;3.83;;
43626;SDS011;29217;52.586;13.442;2022-08-07T04:55:55;7.97;;;4.40;;
43626;SDS011;29217;52.586;13.442;2022-08-07T05:06:35;6.30;;;3.67;;
43626;SDS011;29217;52.586;13.442;2022-08-07T05:09:11;4.57;;;3.67;;
43626;SDS011;29217;52.586;13.442;2022-08-07T05:11:54;8.93;;;3.17;;
43626;SDS011;29217;52.586;13.442;2022-08-07T05:16:56;5.43;;;3.40;;
43626;SDS011;29217;52.586;13.442;2022-08-07T05:19:24;5.05;;;2.97;;
43626;SDS011;29217;52.586;13.442;2022-08-07T05:21:55;5.10;;;3.10;;
43626;SDS011;29217;52.586;13.442;2022-08-07T05:24:24;4.65;;;2.63;;
43626;SDS011;29217;52.586;13.442;2022-08-07T05:26:52;4.38;;;2.70;;
43626;SDS011;29217;52.586;13.442;2022-08-07T05:29:21;4.13;;;2.47;;
43626;SDS011;29217;52.586;13.442;2022-08-07T05:31:48;2.92;;;2.17;;
43626;SDS011;29217;52.586;13.442;2022-08-07T05:34:15;46.20;;;4.45;;
43626;SDS011;29217;52.586;13.442;2022-08-07T05:36:43;4.47;;;2.50;;
43626;SDS011;29217;52.586;13.442;2022-08-07T05:39:12;3.97;;;2.20;;
43626;SDS011;29217;52.586;13.442;2022-08-07T05:41:39;8.82;;;2.38;;
43626;SDS011;29217;52.586;13.442;2022-08-07T05:44:07;7.03;;;2.47;;
43626;SDS011;29217;52.586;13.442;2022-08-07T05:46:33;3.53;;;2.03;;
43626;SDS011;29217;52.586;13.442;2022-08-07T05:49:00;3.25;;;2.28;;
43626;SDS011;29217;52.586;13.442;2022-08-07T05:51:29;3.47;;;2.08;;
43626;SDS011;29217;52.586;13.442;2022-08-07T05:53:54;5.97;;;2.10;;
43626;SDS011;29217;52.586;13.442;2022-08-07T05:56:20;4.15;;;2.05;;
43626;SDS011;29217;52.586;13.442;2022-08-07T05:58:46;4.45;;;2.30;;
43626;SDS011;29217;52.586;13.442;2022-08-07T06:01:12;6.03;;;2.33;;
43626;SDS011;29217;52.586;13.442;2022-08-07T06:03:40;3.65;;;2.42;;
43626;SDS011;29217;52.586;13.442;2022-08-07T06:06:15;4.43;;;2.13;;
43626;SDS011;29217;52.586;13.442;2022-08-07T06:08:41;2.75;;;1.90;;
43626;SDS011;29217;52.586;13.442;2022-08-07T06:11:07;3.20;;;2.05;;
43626;SDS011;29217;52.586;13.442;2022-08-07T06:13:36;4.38;;;2.55;;
43626;SDS011;29217;52.586;13.442;2022-08-07T06:16:02;3.83;;;1.85;;
43626;SDS011;29217;52.586;13.442;2022-08-07T06:18:30;5.30;;;2.08;;
43626;SDS011;29217;52.586;13.442;2022-08-07T06:20:57;9.95;;;2.15;;
43626;SDS011;29217;52.586;13.442;2022-08-07T06:23:24;3.80;;;1.90;;
43626;SDS011;29217;52.586;13.442;2022-08-07T06:25:50;5.30;;;2.03;;
43626;SDS011;29217;52.586;13.442;2022-08-07T06:28:16;3.38;;;2.28;;
43626;SDS011;29217;52.586;13.442;2022-08-07T06:30:42;3.70;;;2.03;;
43626;SDS011;29217;52.586;13.442;2022-08-07T06:33:08;6.28;;;2.10;;
43626;SDS011;29217;52.586;13.442;2022-08-07T06:35:34;4.88;;;2.03;;
43626;SDS011;29217;52.586;13.442;2022-08-07T06:38:00;8.70;;;2.35;;
43626;SDS011;29217;52.586;13.442;2022-08-07T06:40:28;3.25;;;2.00;;
43626;SDS011;29217;52.586;13.442;2022-08-07T06:42:58;3.88;;;1.98;;
43626;SDS011;29217;52.586;13.442;2022-08-07T06:45:26;4.13;;;2.08;;
43626;SDS011;29217;52.586;13.442;2022-08-07T06:47:53;3.30;;;2.05;;
43626;SDS011;29217;52.586;13.442;2022-08-07T06:50:19;4.78;;;1.80;;
43626;SDS011;29217;52.586;13.442;2022-08-07T06:52:46;5.47;;;1.85;;
43626;SDS011;29217;52.586;13.442;2022-08-07T06:55:22;5.40;;;2.22;;
43626;SDS011;29217;52.586;13.442;2022-08-07T06:57:50;5.88;;;2.20;;
43626;SDS011;29217;52.586;13.442;2022-08-07T07:00:17;3.28;;;1.88;;
43626;SDS011;29217;52.586;13.442;2022-08-07T07:02:43;3.80;;;1.88;;
43626;SDS011;29217;52.586;13.442;2022-08-07T07:05:11;2.78;;;2.00;;
43626;SDS011;29217;52.586;13.442;2022-08-07T07:07:37;2.30;;;1.40;;
43626;SDS011;29217;52.586;13.442;2022-08-07T07:10:03;12.80;;;1.88;;
43626;SDS011;29217;52.586;13.442;2022-08-07T07:20:50;5.50;;;2.00;;
43626;SDS011;29217;52.586;13.442;2022-08-07T07:23:19;3.47;;;1.50;;
43626;SDS011;29217;52.586;13.442;2022-08-07T07:25:47;2.30;;;1.80;;
43626;SDS011;29217;52.586;13.442;2022-08-07T07:28:22;5.30;;;2.00;;
43626;SDS011;29217;52.586;13.442;2022-08-07T07:30:52;2.88;;;1.30;;
43626;SDS011;29217;52.586;13.442;2022-08-07T07:33:23;2.63;;;1.70;;
43626;SDS011;29217;52.586;13.442;2022-08-07T07:35:52;4.93;;;1.60;;
43626;SDS011;29217;52.586;13.442;2022-08-07T07:38:19;4.38;;;1.60;;
43626;SDS011;29217;52.586;13.442;2022-08-07T07:40:47;3.90;;;1.60;;
43626;SDS011;29217;52.586;13.442;2022-08-07T07:43:14;9.60;;;1.77;;
43626;SDS011;29217;52.586;13.442;2022-08-07T07:45:41;3.08;;;1.40;;
43626;SDS011;29217;52.586;13.442;2022-08-07T07:48:09;11.68;;;1.48;;
43626;SDS011;29217;52.586;13.442;2022-08-07T07:50:39;2.28;;;1.30;;
43626;SDS011;29217;52.586;13.442;2022-08-07T07:53:07;3.75;;;1.60;;
43626;SDS011;29217;52.586;13.442;2022-08-07T07:55:34;2.83;;;1.30;;
43626;SDS011;29217;52.586;13.442;2022-08-07T07:58:02;2.53;;;1.20;;
43626;SDS011;29217;52.586;13.442;2022-08-07T08:00:28;3.75;;;1.30;;
43626;SDS011;29217;52.586;13.442;2022-08-07T08:02:57;1.85;;;1.30;;
43626;SDS011;29217;52.586;13.442;2022-08-07T08:05:25;3.60;;;1.50;;
43626;SDS011;29217;52.586;13.442;2022-08-07T08:07:52;1.85;;;1.20;;
43626;SDS011;29217;52.586;13.442;2022-08-07T08:10:17;3.00;;;1.65;;
43626;SDS011;29217;52.586;13.442;2022-08-07T08:12:44;5.25;;;1.42;;
43626;SDS011;29217;52.586;13.442;2022-08-07T08:15:12;2.58;;;1.10;;
43626;SDS011;29217;52.586;13.442;2022-08-07T08:17:38;4.07;;;1.40;;
43626;SDS011;29217;52.586;13.442;2022-08-07T08:20:06;6.90;;;1.23;;
43626;SDS011;29217;52.586;13.442;2022-08-07T08:22:37;2.53;;;1.38;;
43626;SDS011;29217;52.586;13.442;2022-08-07T08:25:24;1.23;;;0.90;;
43626;SDS011;29217;52.586;13.442;2022-08-07T08:28:11;5.22;;;1.30;;
43626;SDS011;29217;52.586;13.442;2022-08-07T08:30:41;4.25;;;1.13;;
43626;SDS011;29217;52.586;13.442;2022-08-07T08:33:08;2.30;;;1.27;;
43626;SDS011;29217;52.586;13.442;2022-08-07T08:35:40;1.95;;;1.00;;
43626;SDS011;29217;52.586;13.442;2022-08-07T08:38:07;2.00;;;1.17;;
43626;SDS011;29217;52.586;13.442;2022-08-07T08:40:37;3.35;;;1.17;;
43626;SDS011;29217;52.586;13.442;2022-08-07T08:43:14;3.05;;;1.00;;
43626;SDS011;29217;52.586;13.442;2022-08-07T08:51:04;1.83;;;1.20;;
43626;SDS011;29217;52.586;13.442;2022-08-07T08:56:56;9.50;;;1.40;;
43626;SDS011;29217;52.586;13.442;2022-08-07T09:04:15;5.63;;;1.48;;
43626;SDS011;29217;52.586;13.442;2022-08-07T09:12:11;2.70;;;1.20;;
43626;SDS011;29217;52.586;13.442;2022-08-07T09:14:50;2.95;;;1.40;;
43626;SDS011;29217;52.586;13.442;2022-08-07T09:28:40;3.20;;;1.38;;
43626;SDS011;29217;52.586;13.442;2022-08-07T09:31:19;3.05;;;1.40;;
43626;SDS011;29217;52.586;13.442;2022-08-07T09:33:58;6.68;;;1.35;;
43626;SDS011;29217;52.586;13.442;2022-08-07T09:45:22;3.88;;;1.45;;
43626;SDS011;29217;52.586;13.442;2022-08-07T09:47:59;2.30;;;1.33;;
43626;SDS011;29217;52.586;13.442;2022-08-07T09:53:04;1.85;;;1.20;;
43626;SDS011;29217;52.586;13.442;2022-08-07T09:55:42;2.05;;;1.60;;
43626;SDS011;29217;52.586;13.442;2022-08-07T10:01:42;1.73;;;1.30;;
43626;SDS011;29217;52.586;13.442;2022-08-07T10:10:18;2.08;;;1.25;;
43626;SDS011;29217;52.586;13.442;2022-08-07T10:15:53;3.88;;;1.42;;
43626;SDS011;29217;52.586;13.442;2022-08-07T10:21:18;4.25;;;1.52;;
43626;SDS011;29217;52.586;13.442;2022-08-07T10:35:21;2.95;;;1.20;;
43626;SDS011;29217;52.586;13.442;2022-08-07T10:38:13;3.90;;;1.52;;
43626;SDS011;29217;52.586;13.442;2022-08-07T10:43:56;2.97;;;1.58;;
43626;SDS011;29217;52.586;13.442;2022-08-07T10:46:24;7.55;;;1.55;;
43626;SDS011;29217;52.586;13.442;2022-08-07T10:49:01;2.85;;;1.13;;
43626;SDS011;29217;52.586;13.442;2022-08-07T10:51:47;2.10;;;1.20;;
43626;SDS011;29217;52.586;13.442;2022-08-07T10:59:52;5.82;;;1.45;;
43626;SDS011;29217;52.586;13.442;2022-08-07T11:02:26;1.25;;;1.00;;
43626;SDS011;29217;52.586;13.442;2022-08-07T11:05:24;2.08;;;1.30;;
43626;SDS011;29217;52.586;13.442;2022-08-07T11:10:46;2.60;;;1.20;;
43626;SDS011;29217;52.586;13.442;2022-08-07T11:16:10;2.78;;;1.20;;
43626;SDS011;29217;52.586;13.442;2022-08-07T11:19:00;2.80;;;1.25;;
43626;SDS011;29217;52.586;13.442;2022-08-07T11:21:34;3.35;;;1.15;;
43626;SDS011;29217;52.586;13.442;2022-08-07T11:24:11;7.47;;;1.65;;
43626;SDS011;29217;52.586;13.442;2022-08-07T11:26:56;9.77;;;1.27;;
43626;SDS011;29217;52.586;13.442;2022-08-07T11:29:34;2.97;;;1.20;;
43626;SDS011;29217;52.586;13.442;2022-08-07T11:32:20;7.18;;;1.20;;
43626;SDS011;29217;52.586;13.442;2022-08-07T11:34:57;2.00;;;1.27;;
43626;SDS011;29217;52.586;13.442;2022-08-07T11:37:34;4.45;;;1.48;;
43626;SDS011;29217;52.586;13.442;2022-08-07T11:42:59;2.75;;;1.20;;
43626;SDS011;29217;52.586;13.442;2022-08-07T11:51:34;1.98;;;1.30;;
43626;SDS011;29217;52.586;13.442;2022-08-07T11:54:37;3.20;;;1.00;;
43626;SDS011;29217;52.586;13.442;2022-08-07T11:57:32;2.05;;;1.30;;
43626;SDS011;29217;52.586;13.442;2022-08-07T12:00:13;4.10;;;1.02;;
43626;SDS011;29217;52.586;13.442;2022-08-07T12:02:49;4.60;;;1.23;;
43626;SDS011;29217;52.586;13.442;2022-08-07T12:08:33;6.93;;;1.20;;
43626;SDS011;29217;52.586;13.442;2022-08-07T12:14:41;1.48;;;0.90;;
43626;SDS011;29217;52.586;13.442;2022-08-07T12:16:52;2.83;;;0.90;;
43626;SDS011;29217;52.586;13.442;2022-08-07T12:24:33;1.70;;;0.80;;
43626;SDS011;29217;52.586;13.442;2022-08-07T12:27:14;4.55;;;0.98;;
43626;SDS011;29217;52.586;13.442;2022-08-07T12:34:50;3.90;;;0.88;;
43626;SDS011;29217;52.586;13.442;2022-08-07T12:37:17;1.63;;;0.90;;
43626;SDS011;29217;52.586;13.442;2022-08-07T12:39:46;3.55;;;1.17;;
43626;SDS011;29217;52.586;13.442;2022-08-07T12:42:15;3.40;;;1.00;;
43626;SDS011;29217;52.586;13.442;2022-08-07T12:44:46;1.02;;;0.85;;
43626;SDS011;29217;52.586;13.442;2022-08-07T12:50:12;3.75;;;1.00;;
43626;SDS011;29217;52.586;13.442;2022-08-07T12:53:01;1.48;;;0.93;;
43626;SDS011;29217;52.586;13.442;2022-08-07T12:55:42;1.95;;;0.73;;
43626;SDS011;29217;52.586;13.442;2022-08-07T12:58:14;4.10;;;1.38;;
43626;SDS011;29217;52.586;13.442;2022-08-07T13:05:52;4.60;;;1.50;;
43626;SDS011;29217;52.586;13.442;2022-08-07T13:14:18;2.40;;;1.10;;
43626;SDS011;29217;52.586;13.442;2022-08-07T13:17:11;2.72;;;1.30;;
43626;SDS011;29217;52.586;13.442;2022-08-07T13:28:12;12.38;;;1.15;;
43626;SDS011;29217;52.586;13.442;2022-08-07T13:31:02;2.28;;;1.00;;
43626;SDS011;29217;52.586;13.442;2022-08-07T13:33:41;2.25;;;1.00;;
43626;SDS011;29217;52.586;13.442;2022-08-07T13:36:24;3.55;;;0.98;;
43626;SDS011;29217;52.586;13.442;2022-08-07T13:44:07;5.40;;;1.50;;
43626;SDS011;29217;52.586;13.442;2022-08-07T13:46:35;6.60;;;1.00;;
43626;SDS011;29217;52.586;13.442;2022-08-07T13:49:04;4.57;;;1.08;;
43626;SDS011;29217;52.586;13.442;2022-08-07T13:51:33;2.25;;;1.02;;
43626;SDS011;29217;52.586;13.442;2022-08-07T13:54:02;2.42;;;0.90;;
43626;SDS011;29217;52.586;13.442;2022-08-07T13:56:33;4.63;;;1.10;;
43626;SDS011;29217;52.586;13.442;2022-08-07T13:59:01;1.63;;;0.90;;
43626;SDS011;29217;52.586;13.442;2022-08-07T14:01:33;2.08;;;1.10;;
43626;SDS011;29217;52.586;13.442;2022-08-07T14:04:13;2.92;;;1.13;;
43626;SDS011;29217;52.586;13.442;2022-08-07T14:06:40;1.63;;;1.10;;
43626;SDS011;29217;52.586;13.442;2022-08-07T14:09:09;5.10;;;0.93;;
43626;SDS011;29217;52.586;13.442;2022-08-07T14:11:57;1.52;;;1.10;;
43626;SDS011;29217;52.586;13.442;2022-08-07T14:14:28;3.13;;;1.17;;
43626;SDS011;29217;52.586;13.442;2022-08-07T14:16:58;3.63;;;1.00;;
43626;SDS011;29217;52.586;13.442;2022-08-07T14:19:34;4.78;;;1.00;;
43626;SDS011;29217;52.586;13.442;2022-08-07T14:22:02;1.95;;;1.25;;
43626;SDS011;29217;52.586;13.442;2022-08-07T14:24:41;4.97;;;1.30;;
43626;SDS011;29217;52.586;13.442;2022-08-07T14:27:10;1.55;;;1.00;;
43626;SDS011;29217;52.586;13.442;2022-08-07T14:29:39;2.30;;;1.08;;
43626;SDS011;29217;52.586;13.442;2022-08-07T14:32:10;2.83;;;1.17;;
43626;SDS011;29217;52.586;13.442;2022-08-07T14:34:38;3.83;;;1.15;;
43626;SDS011;29217;52.586;13.442;2022-08-07T14:37:09;3.03;;;0.90;;
43626;SDS011;29217;52.586;13.442;2022-08-07T14:39:37;1.23;;;0.90;;
43626;SDS011;29217;52.586;13.442;2022-08-07T14:42:05;2.30;;;1.00;;
43626;SDS011;29217;52.586;13.442;2022-08-07T14:44:36;6.75;;;1.15;;
43626;SDS011;29217;52.586;13.442;2022-08-07T14:47:04;1.65;;;0.82;;
43626;SDS011;29217;52.586;13.442;2022-08-07T14:49:33;2.50;;;1.00;;
43626;SDS011;29217;52.586;13.442;2022-08-07T14:52:01;2.38;;;0.98;;
43626;SDS011;29217;52.586;13.442;2022-08-07T14:54:28;1.40;;;0.90;;
43626;SDS011;29217;52.586;13.442;2022-08-07T14:56:55;2.55;;;1.00;;
43626;SDS011;29217;52.586;13.442;2022-08-07T14:59:22;1.58;;;0.93;;
43626;SDS011;29217;52.586;13.442;2022-08-07T15:01:51;1.38;;;1.10;;
43626;SDS011;29217;52.586;13.442;2022-08-07T15:04:18;1.27;;;0.80;;
43626;SDS011;29217;52.586;13.442;2022-08-07T15:06:46;3.13;;;1.20;;
43626;SDS011;29217;52.586;13.442;2022-08-07T15:09:14;5.07;;;0.98;;
43626;SDS011;29217;52.586;13.442;2022-08-07T15:11:43;3.15;;;1.20;;
43626;SDS011;29217;52.586;13.442;2022-08-07T15:14:15;2.35;;;1.10;;
43626;SDS011;29217;52.586;13.442;2022-08-07T15:16:46;2.85;;;1.13;;
43626;SDS011;29217;52.586;13.442;2022-08-07T15:19:18;5.00;;;1.00;;
43626;SDS011;29217;52.586;13.442;2022-08-07T15:21:50;5.68;;;1.30;;
43626;SDS011;29217;52.586;13.442;2022-08-07T15:24:21;2.03;;;0.90;;
43626;SDS011;29217;52.586;13.442;2022-08-07T15:27:11;4.25;;;1.13;;
43626;SDS011;29217;52.586;13.442;2022-08-07T15:29:41;2.17;;;1.10;;
43626;SDS011;29217;52.586;13.442;2022-08-07T15:32:09;2.47;;;1.02;;
43626;SDS011;29217;52.586;13.442;2022-08-07T15:34:40;8.43;;;1.17;;
43626;SDS011;29217;52.586;13.442;2022-08-07T15:37:11;8.32;;;1.15;;
43626;SDS011;29217;52.586;13.442;2022-08-07T15:39:40;6.05;;;1.23;;
43626;SDS011;29217;52.586;13.442;2022-08-07T15:42:34;6.90;;;1.10;;
43626;SDS011;29217;52.586;13.442;2022-08-07T15:45:06;2.95;;;1.00;;
43626;SDS011;29217;52.586;13.442;2022-08-07T15:47:34;2.45;;;1.25;;
43626;SDS011;29217;52.586;13.442;2022-08-07T15:50:05;1.58;;;1.30;;
43626;SDS011;29217;52.586;13.442;2022-08-07T15:52:34;2.92;;;1.20;;
43626;SDS011;29217;52.586;13.442;2022-08-07T15:55:03;6.55;;;1.30;;
43626;SDS011;29217;52.586;13.442;2022-08-07T15:57:31;3.78;;;1.30;;
43626;SDS011;29217;52.586;13.442;2022-08-07T15:59:59;5.05;;;1.15;;
43626;SDS011;29217;52.586;13.442;2022-08-07T16:02:26;2.35;;;1.00;;
43626;SDS011;29217;52.586;13.442;2022-08-07T16:05:07;2.78;;;1.08;;
43626;SDS011;29217;52.586;13.442;2022-08-07T16:07:39;6.35;;;1.20;;
43626;SDS011;29217;52.586;13.442;2022-08-07T16:10:29;1.88;;;1.15;;
43626;SDS011;29217;52.586;13.442;2022-08-07T16:18:16;2.95;;;1.20;;
43626;SDS011;29217;52.586;13.442;2022-08-07T16:24:03;3.85;;;1.20;;
43626;SDS011;29217;52.586;13.442;2022-08-07T16:29:29;5.80;;;3.90;;
43626;SDS011;29217;52.586;13.442;2022-08-07T16:32:16;4.65;;;2.03;;
43626;SDS011;29217;52.586;13.442;2022-08-07T16:34:50;3.88;;;1.85;;
43626;SDS011;29217;52.586;13.442;2022-08-07T16:40:18;4.10;;;1.35;;
43626;SDS011;29217;52.586;13.442;2022-08-07T16:42:59;4.13;;;1.38;;
43626;SDS011;29217;52.586;13.442;2022-08-07T16:48:19;3.05;;;1.15;;
43626;SDS011;29217;52.586;13.442;2022-08-07T16:56:49;2.50;;;1.63;;
43626;SDS011;29217;52.586;13.442;2022-08-07T17:02:12;3.47;;;1.35;;
43626;SDS011;29217;52.586;13.442;2022-08-07T17:04:57;2.90;;;1.23;;
43626;SDS011;29217;52.586;13.442;2022-08-07T17:15:47;6.45;;;2.00;;
43626;SDS011;29217;52.586;13.442;2022-08-07T17:18:29;5.20;;;1.40;;
43626;SDS011;29217;52.586;13.442;2022-08-07T17:21:23;5.65;;;1.63;;
43626;SDS011;29217;52.586;13.442;2022-08-07T17:32:22;4.35;;;1.60;;
43626;SDS011;29217;52.586;13.442;2022-08-07T17:35:04;7.13;;;1.67;;
43626;SDS011;29217;52.586;13.442;2022-08-07T17:37:42;7.22;;;1.75;;
43626;SDS011;29217;52.586;13.442;2022-08-07T17:40:30;3.38;;;1.40;;
43626;SDS011;29217;52.586;13.442;2022-08-07T17:43:07;3.25;;;1.48;;
43626;SDS011;29217;52.586;13.442;2022-08-07T17:45:39;12.93;;;3.13;;
43626;SDS011;29217;52.586;13.442;2022-08-07T17:48:14;3.13;;;1.80;;
43626;SDS011;29217;52.586;13.442;2022-08-07T17:50:51;8.13;;;1.80;;
43626;SDS011;29217;52.586;13.442;2022-08-07T17:53:29;17.52;;;2.40;;
43626;SDS011;29217;52.586;13.442;2022-08-07T18:01:20;3.03;;;1.73;;
43626;SDS011;29217;52.586;13.442;2022-08-07T18:04:07;8.75;;;2.50;;
43626;SDS011;29217;52.586;13.442;2022-08-07T18:06:47;5.05;;;1.25;;
43626;SDS011;29217;52.586;13.442;2022-08-07T18:09:20;5.88;;;1.27;;
43626;SDS011;29217;52.586;13.442;2022-08-07T18:11:50;2.38;;;1.30;;
43626;SDS011;29217;52.586;13.442;2022-08-07T18:17:30;4.43;;;1.10;;
43626;SDS011;29217;52.586;13.442;2022-08-07T18:20:05;2.47;;;1.15;;
43626;SDS011;29217;52.586;13.442;2022-08-07T18:22:37;3.97;;;1.20;;